createdAt,value
2019-04-01T00:00:43.815Z,40.31
2019-04-01T00:03:12.504Z,40.38
2019-04-01T00:05:41.145Z,40.24
2019-04-01T00:08:09.997Z,40.02
2019-04-01T00:10:38.665Z,40.11
2019-04-01T00:13:07.266Z,41.07
2019-04-01T00:15:36.152Z,41.39
2019-04-01T00:18:04.812Z,41.81
2019-04-01T00:20:33.454Z,41.52
2019-04-01T00:23:02.562Z,41.37
2019-04-01T00:25:31.272Z,41.13
2019-04-01T00:28:00.114Z,41.33
2019-04-01T00:30:28.948Z,41.25
2019-04-01T00:32:57.550Z,40.01
2019-04-01T00:35:26.165Z,41.25
2019-04-01T00:37:55.042Z,40.88
2019-04-01T00:40:23.663Z,41.14
2019-04-01T00:42:56.392Z,42.14
2019-04-01T00:45:25.638Z,41.47
2019-04-01T00:47:54.509Z,41.87
2019-04-01T00:50:23.440Z,41.98
2019-04-01T00:52:52.070Z,41.46
2019-04-01T00:55:20.683Z,40.42
2019-04-01T00:57:53.218Z,39.22
2019-04-01T01:00:22.367Z,39.29
2019-04-01T01:02:50.973Z,38.93
2019-04-01T01:05:19.592Z,40.05
2019-04-01T01:07:48.450Z,39.02
2019-04-01T01:10:17.223Z,39.32
2019-04-01T01:12:46.081Z,40.00
2019-04-01T01:15:14.996Z,39.67
2019-04-01T01:17:43.618Z,40.56
2019-04-01T01:20:12.305Z,41.50
2019-04-01T01:22:40.920Z,41.80
2019-04-01T01:25:09.674Z,41.27
2019-04-01T01:27:38.342Z,41.83
2019-04-01T01:30:07.223Z,40.54
2019-04-01T01:32:35.856Z,39.80
2019-04-01T01:35:04.550Z,42.07
2019-04-01T01:37:33.414Z,40.99
2019-04-01T01:40:02.035Z,40.24
2019-04-01T01:42:30.626Z,40.55
2019-04-01T01:44:59.474Z,41.13
2019-04-01T01:47:28.799Z,40.72
2019-04-01T01:49:57.403Z,40.71
2019-04-01T01:52:26.018Z,40.66
2019-04-01T01:54:54.630Z,41.12
2019-04-01T01:57:23.214Z,42.31
2019-04-01T01:59:52.080Z,41.49
2019-04-01T02:02:20.682Z,42.52
2019-04-01T02:04:49.761Z,40.46
2019-04-01T02:07:19.125Z,41.30
2019-04-01T02:09:47.975Z,40.67
2019-04-01T02:12:16.855Z,41.70
2019-04-01T02:14:45.824Z,40.45
2019-04-01T02:17:14.457Z,41.58
2019-04-01T02:19:43.052Z,42.32
2019-04-01T02:22:11.675Z,41.65
2019-04-01T02:24:40.275Z,40.46
2019-04-01T02:27:08.909Z,41.07
2019-04-01T02:29:37.503Z,40.31
2019-04-01T02:32:06.439Z,40.68
2019-04-01T02:34:35.054Z,39.71
2019-04-01T02:37:03.682Z,40.26
2019-04-01T02:39:32.474Z,41.24
2019-04-01T02:42:01.478Z,40.21
2019-04-01T02:44:30.067Z,39.39
2019-04-01T02:46:58.667Z,41.64
2019-04-01T02:49:27.525Z,41.23
2019-04-01T02:51:56.130Z,41.20
2019-04-01T02:54:24.762Z,40.79
2019-04-01T02:56:53.603Z,39.80
2019-04-01T02:59:22.477Z,41.74
2019-04-01T03:01:51.079Z,41.18
2019-04-01T03:04:19.688Z,41.31
2019-04-01T03:06:48.340Z,39.84
2019-04-01T03:09:16.988Z,40.30
2019-04-01T03:11:45.616Z,41.32
2019-04-01T03:14:14.302Z,41.46
2019-04-01T03:16:43.160Z,39.43
2019-04-01T03:19:11.785Z,42.02
2019-04-01T03:21:40.381Z,39.04
2019-04-01T03:24:09.244Z,39.62
2019-04-01T03:26:37.891Z,39.44
2019-04-01T03:29:06.554Z,38.46
2019-04-01T03:31:35.165Z,38.29
2019-04-01T03:34:04.155Z,43.39
2019-04-01T03:36:32.762Z,39.87
2019-04-01T03:39:01.379Z,39.01
2019-04-01T03:41:29.947Z,40.73
2019-04-01T03:43:58.551Z,42.09
2019-04-01T03:46:27.168Z,40.65
2019-04-01T03:48:56.027Z,42.52
2019-04-01T03:51:24.676Z,40.27
2019-04-01T03:53:53.354Z,43.07
2019-04-01T03:56:22.171Z,42.77
2019-04-01T03:58:51.025Z,42.21
2019-04-01T04:01:19.873Z,40.12
2019-04-01T04:03:48.518Z,39.31
2019-04-01T04:06:17.108Z,39.89
2019-04-01T04:08:45.723Z,41.31
2019-04-01T04:11:14.873Z,41.52
2019-04-01T04:13:43.476Z,40.52
2019-04-01T04:16:12.396Z,43.41
2019-04-01T04:18:41.274Z,40.15
2019-04-01T04:21:11.118Z,38.12
2019-04-01T04:23:39.724Z,39.27
2019-04-01T04:26:08.433Z,41.34
2019-04-01T04:28:37.315Z,38.78
2019-04-01T04:31:06.191Z,41.43
2019-04-01T04:33:34.804Z,39.41
2019-04-01T04:36:03.429Z,39.78
2019-04-01T04:38:32.098Z,39.23
2019-04-01T04:41:00.714Z,40.75
2019-04-01T04:43:29.813Z,38.13
2019-04-01T04:45:58.399Z,40.46
2019-04-01T04:48:27.764Z,39.54
2019-04-01T04:50:56.847Z,38.38
2019-04-01T04:53:25.697Z,41.38
2019-04-01T04:55:54.545Z,41.32
2019-04-01T04:58:23.137Z,38.88
2019-04-01T05:00:52.008Z,38.60
2019-04-01T05:03:20.651Z,36.80
2019-04-01T05:05:49.763Z,36.74
2019-04-01T05:08:18.371Z,38.74
2019-04-01T05:10:47.297Z,37.05
2019-04-01T05:13:16.209Z,36.30
2019-04-01T05:15:44.829Z,37.08
2019-04-01T05:18:13.719Z,38.03
2019-04-01T05:20:42.861Z,40.17
2019-04-01T05:23:11.945Z,37.63
2019-04-01T05:25:40.559Z,38.05
2019-04-01T05:28:09.796Z,37.06
2019-04-01T05:30:38.883Z,39.61
2019-04-01T05:33:10.658Z,37.66
2019-04-01T05:35:39.618Z,36.21
2019-04-01T05:38:08.562Z,36.78
2019-04-01T05:40:37.837Z,37.23
2019-04-01T05:43:06.535Z,35.83
2019-04-01T05:45:35.210Z,38.59
2019-04-01T05:48:04.110Z,39.10
2019-04-01T05:50:33.104Z,38.03
2019-04-01T05:53:01.819Z,38.60
2019-04-01T05:55:30.529Z,41.35
2019-04-01T05:57:59.204Z,37.44
2019-04-01T06:00:35.880Z,40.05
2019-04-01T06:03:04.824Z,37.63
2019-04-01T06:05:33.427Z,37.77
2019-04-01T06:08:02.276Z,38.09
2019-04-01T06:10:31.163Z,37.93
2019-04-01T06:13:00.099Z,40.86
2019-04-01T06:15:28.710Z,37.62
2019-04-01T06:17:57.302Z,38.37
2019-04-01T06:20:25.916Z,36.86
2019-04-01T06:22:54.822Z,37.62
2019-04-01T06:25:24.742Z,38.09
2019-04-01T06:27:53.438Z,35.75
2019-04-01T06:30:22.150Z,36.99
2019-04-01T06:32:51.110Z,35.74
2019-04-01T06:35:19.722Z,33.89
2019-04-01T06:37:48.690Z,31.58
2019-04-01T06:40:17.397Z,28.40
2019-04-01T06:42:46.480Z,28.40
2019-04-01T06:45:15.159Z,26.25
2019-04-01T06:47:44.025Z,24.88
2019-04-01T06:50:12.610Z,26.10
2019-04-01T06:52:41.637Z,26.51
2019-04-01T06:55:10.305Z,26.31
2019-04-01T06:57:38.988Z,25.27
2019-04-01T07:00:07.870Z,26.58
2019-04-01T07:02:36.488Z,25.24
2019-04-01T07:05:06.107Z,24.68
2019-04-01T07:07:34.740Z,23.74
2019-04-01T07:10:03.445Z,24.61
2019-04-01T07:12:32.132Z,22.92
2019-04-01T07:15:00.819Z,22.84
2019-04-01T07:17:29.600Z,22.37
2019-04-01T07:19:58.234Z,22.57
2019-04-01T07:22:26.872Z,20.86
2019-04-01T07:24:55.475Z,19.88
2019-04-01T07:27:24.467Z,20.21
2019-04-01T07:29:53.078Z,22.79
2019-04-01T07:32:21.925Z,19.66
2019-04-01T07:34:50.884Z,21.02
2019-04-01T07:37:19.529Z,19.82
2019-04-01T07:39:48.470Z,19.73
2019-04-01T07:42:17.327Z,19.15
2019-04-01T07:44:46.056Z,20.23
2019-04-01T07:47:15.006Z,20.07
2019-04-01T07:49:43.656Z,22.05
2019-04-01T07:52:12.765Z,20.08
2019-04-01T07:54:41.957Z,22.34
2019-04-01T07:57:10.547Z,21.59
2019-04-01T07:59:39.415Z,21.54
2019-04-01T08:02:08.110Z,19.91
2019-04-01T08:04:37.094Z,20.33
2019-04-01T08:07:06.012Z,20.96
2019-04-01T08:09:34.690Z,21.45
2019-04-01T08:12:03.319Z,21.27
2019-04-01T08:14:32.018Z,21.68
2019-04-01T08:17:00.698Z,20.87
2019-04-01T08:19:29.461Z,22.21
2019-04-01T08:21:58.152Z,20.79
2019-04-01T08:24:27.089Z,20.30
2019-04-01T08:26:55.997Z,21.74
2019-04-01T08:29:30.424Z,21.38
2019-04-01T08:31:54.988Z,20.46
2019-04-01T08:34:23.635Z,21.66
2019-04-01T08:36:52.376Z,20.65
2019-04-01T08:39:21.107Z,22.14
2019-04-01T08:41:49.869Z,22.56
2019-04-01T08:44:18.555Z,23.89
2019-04-01T08:46:47.475Z,23.33
2019-04-01T08:49:16.318Z,22.57
2019-04-01T08:51:45.041Z,22.75
2019-04-01T08:54:13.939Z,22.47
2019-04-01T08:56:42.638Z,22.17
2019-04-01T08:59:11.286Z,21.33
2019-04-01T09:01:40.215Z,20.47
2019-04-01T09:04:08.877Z,22.85
2019-04-01T09:06:37.504Z,21.27
2019-04-01T09:09:07.468Z,21.14
2019-04-01T09:11:38.371Z,21.41
2019-04-01T09:14:07.017Z,20.46
2019-04-01T09:16:35.989Z,20.28
2019-04-01T09:19:04.630Z,21.22
2019-04-01T09:21:33.244Z,19.75
2019-04-01T09:24:01.842Z,20.44
2019-04-01T09:26:30.460Z,22.17
2019-04-01T09:28:59.378Z,20.76
2019-04-01T09:31:28.090Z,22.14
2019-04-01T09:33:56.716Z,21.68
2019-04-01T09:36:25.358Z,19.47
2019-04-01T09:38:53.978Z,20.24
2019-04-01T09:41:22.594Z,18.63
2019-04-01T09:43:51.261Z,20.51
2019-04-01T09:46:20.048Z,18.55
2019-04-01T09:48:49.013Z,19.05
2019-04-01T09:51:17.876Z,18.77
2019-04-01T09:53:46.489Z,18.52
2019-04-01T09:56:15.125Z,17.74
2019-04-01T09:58:43.758Z,18.65
2019-04-01T10:01:12.381Z,17.28
2019-04-01T10:03:41.235Z,17.75
2019-04-01T10:06:10.594Z,18.23
2019-04-01T10:08:42.519Z,17.35
2019-04-01T10:11:12.443Z,18.69
2019-04-01T10:13:39.961Z,18.18
2019-04-01T10:16:08.610Z,18.14
2019-04-01T10:18:37.271Z,16.86
2019-04-01T10:21:05.891Z,17.05
2019-04-01T10:23:34.508Z,17.46
2019-04-01T10:26:03.195Z,18.22
2019-04-01T10:28:32.317Z,18.26
2019-04-01T10:31:01.138Z,17.53
2019-04-01T10:33:29.758Z,18.08
2019-04-01T10:35:58.669Z,18.66
2019-04-01T10:38:27.346Z,18.08
2019-04-01T10:40:56.323Z,18.23
2019-04-01T10:43:25.153Z,19.03
2019-04-01T10:45:54.093Z,19.05
2019-04-01T10:48:23.111Z,17.66
2019-04-01T10:50:52.063Z,17.43
2019-04-01T10:53:24.786Z,16.64
2019-04-01T10:55:53.704Z,17.48
2019-04-01T10:58:22.630Z,16.95
2019-04-01T11:00:51.327Z,17.94
2019-04-01T11:03:20.093Z,18.91
2019-04-01T11:05:49.537Z,21.22
2019-04-01T11:08:18.517Z,18.36
2019-04-01T11:10:47.506Z,18.29
2019-04-01T11:13:16.126Z,17.27
2019-04-01T11:15:45.022Z,17.82
2019-04-01T11:18:13.627Z,18.49
2019-04-01T11:20:42.467Z,19.53
2019-04-01T11:23:11.157Z,18.12
2019-04-01T11:25:40.055Z,18.52
2019-04-01T11:28:08.778Z,19.46
2019-04-01T11:30:37.637Z,19.27
2019-04-01T11:33:07.897Z,18.28
2019-04-01T11:35:36.845Z,18.87
2019-04-01T11:38:05.744Z,18.03
2019-04-01T11:40:35.682Z,17.90
2019-04-01T11:43:05.359Z,17.43
2019-04-01T11:45:34.076Z,18.25
2019-04-01T11:48:02.856Z,17.02
2019-04-01T11:50:31.522Z,16.78
2019-04-01T11:53:00.590Z,17.14
2019-04-01T11:55:29.521Z,16.72
2019-04-01T11:57:58.428Z,17.33
2019-04-01T12:00:27.051Z,19.22
2019-04-01T12:02:56.120Z,17.29
2019-04-01T12:05:24.878Z,18.35
2019-04-01T12:07:53.587Z,18.87
2019-04-01T12:10:22.293Z,20.61
2019-04-01T12:12:52.193Z,21.41
2019-04-01T12:15:20.843Z,19.76
2019-04-01T12:17:49.598Z,18.16
2019-04-01T12:20:18.517Z,19.49
2019-04-01T12:22:47.465Z,19.75
2019-04-01T12:25:16.514Z,19.16
2019-04-01T12:27:45.541Z,19.41
2019-04-01T12:30:14.615Z,21.99
2019-04-01T12:32:43.313Z,22.95
2019-04-01T12:35:12.519Z,23.79
2019-04-01T12:37:41.383Z,24.61
2019-04-01T12:40:10.769Z,23.40
2019-04-01T12:42:39.429Z,23.53
2019-04-01T12:45:08.581Z,24.73
2019-04-01T12:47:37.564Z,24.84
2019-04-01T12:50:06.947Z,25.17
2019-04-01T12:52:35.548Z,25.45
2019-04-01T12:55:04.473Z,25.16
2019-04-01T12:57:33.341Z,24.99
2019-04-01T13:00:01.971Z,24.75
2019-04-01T13:02:30.666Z,24.34
2019-04-01T13:04:59.527Z,25.56
2019-04-01T13:07:28.433Z,24.78
2019-04-01T13:09:57.058Z,24.01
2019-04-01T13:12:27.517Z,24.20
2019-04-01T13:14:56.662Z,25.25
2019-04-01T13:17:25.668Z,24.48
2019-04-01T13:19:54.557Z,24.50
2019-04-01T13:22:23.208Z,26.59
2019-04-01T13:24:51.996Z,24.66
2019-04-01T13:27:20.647Z,25.42
2019-04-01T13:29:49.376Z,25.11
2019-04-01T13:32:18.009Z,25.21
2019-04-01T13:34:46.765Z,26.12
2019-04-01T13:37:15.414Z,24.74
2019-04-01T13:39:44.043Z,24.38
2019-04-01T13:42:12.829Z,26.40
2019-04-01T13:44:42.336Z,25.10
2019-04-01T13:47:10.957Z,24.37
2019-04-01T13:49:39.862Z,24.51
2019-04-01T13:52:08.803Z,24.48
2019-04-01T13:54:37.558Z,25.09
2019-04-01T13:57:06.438Z,23.87
2019-04-01T13:59:48.392Z,25.27
2019-04-01T14:02:05.509Z,24.54
2019-04-01T14:04:34.169Z,24.81
2019-04-01T14:07:03.131Z,27.61
2019-04-01T14:09:31.902Z,25.71
2019-04-01T14:12:00.697Z,25.45
2019-04-01T14:14:29.396Z,25.06
2019-04-01T14:16:58.020Z,24.21
2019-04-01T14:19:26.671Z,24.77
2019-04-01T14:21:55.390Z,24.99
2019-04-01T14:24:24.017Z,27.22
2019-04-01T14:26:56.375Z,25.70
2019-04-01T14:29:23.261Z,25.83
2019-04-01T14:31:52.196Z,25.22
2019-04-01T14:34:23.297Z,27.73
2019-04-01T14:36:52.036Z,26.08
2019-04-01T14:39:20.706Z,25.63
2019-04-01T14:41:49.915Z,25.12
2019-04-01T14:44:18.563Z,24.98
2019-04-01T14:46:47.174Z,24.96
2019-04-01T14:49:15.841Z,26.55
2019-04-01T14:51:44.503Z,25.99
2019-04-01T14:54:13.258Z,25.50
2019-04-01T14:56:42.097Z,25.59
2019-04-01T14:59:10.742Z,25.29
2019-04-01T15:01:39.902Z,24.82
2019-04-01T15:04:08.686Z,25.21
2019-04-01T15:06:37.581Z,26.19
2019-04-01T15:09:07.895Z,24.91
2019-04-01T15:11:36.578Z,23.62
2019-04-01T15:14:05.657Z,25.64
2019-04-01T15:16:34.621Z,24.55
2019-04-01T15:19:03.355Z,26.16
2019-04-01T15:21:32.073Z,26.28
2019-04-01T15:24:00.737Z,25.84
2019-04-01T15:26:29.957Z,25.69
2019-04-01T15:29:00.366Z,27.85
2019-04-01T15:31:29.860Z,26.48
2019-04-01T15:33:58.710Z,28.01
2019-04-01T15:36:27.543Z,26.13
2019-04-01T15:38:56.207Z,25.41
2019-04-01T15:41:26.830Z,25.17
2019-04-01T15:43:55.722Z,24.89
2019-04-01T15:46:24.349Z,25.37
2019-04-01T15:48:53.016Z,26.42
2019-04-01T15:51:21.663Z,26.33
2019-04-01T15:53:50.593Z,27.52
2019-04-01T15:56:19.479Z,28.10
2019-04-01T15:58:50.835Z,27.53
2019-04-01T16:01:19.019Z,26.44
2019-04-01T16:03:47.664Z,29.07
2019-04-01T16:06:16.588Z,29.05
2019-04-01T16:08:45.359Z,27.95
2019-04-01T16:11:14.273Z,27.51
2019-04-01T16:13:43.196Z,26.98
2019-04-01T16:16:14.485Z,26.05
2019-04-01T16:18:42.455Z,27.08
2019-04-01T16:21:11.125Z,27.28
2019-04-01T16:23:39.999Z,27.34
2019-04-01T16:26:09.694Z,27.77
2019-04-01T16:28:38.394Z,29.84
2019-04-01T16:31:07.085Z,27.17
2019-04-01T16:33:36.281Z,27.30
2019-04-01T16:36:05.136Z,28.33
2019-04-01T16:38:33.826Z,27.03
2019-04-01T16:41:02.494Z,27.99
2019-04-01T16:43:31.154Z,28.85
2019-04-01T16:45:59.871Z,28.49
2019-04-01T16:48:28.727Z,29.54
2019-04-01T16:50:57.445Z,28.63
2019-04-01T16:53:26.079Z,27.00
2019-04-01T16:55:54.826Z,29.21
2019-04-01T16:58:26.766Z,27.07
2019-04-01T17:00:55.404Z,27.64
2019-04-01T17:03:24.047Z,27.58
2019-04-01T17:05:52.714Z,27.06
2019-04-01T17:08:21.705Z,26.82
2019-04-01T17:10:50.674Z,28.54
2019-04-01T17:13:19.302Z,28.74
2019-04-01T17:15:48.139Z,27.98
2019-04-01T17:18:17.043Z,28.93
2019-04-01T17:20:45.730Z,28.77
2019-04-01T17:23:14.360Z,28.90
2019-04-01T17:25:43.132Z,31.52
2019-04-01T17:28:11.798Z,30.61
2019-04-01T17:30:40.798Z,30.41
2019-04-01T17:33:09.501Z,29.26
2019-04-01T17:35:38.384Z,28.28
2019-04-01T17:38:07.510Z,30.08
2019-04-01T17:40:55.330Z,31.93
2019-04-01T17:43:24.101Z,29.99
2019-04-01T17:45:52.838Z,30.71
2019-04-01T17:48:21.826Z,30.38
2019-04-01T17:50:51.619Z,31.10
2019-04-01T17:53:22.401Z,30.57
2019-04-01T17:55:52.852Z,30.34
2019-04-01T17:58:21.462Z,29.84
2019-04-01T18:00:55.597Z,29.20
2019-04-01T18:03:24.212Z,29.54
2019-04-01T18:05:52.962Z,30.14
2019-04-01T18:08:21.644Z,29.63
2019-04-01T18:10:50.341Z,30.20
2019-04-01T18:13:19.300Z,29.89
2019-04-01T18:15:48.222Z,29.59
2019-04-01T18:18:26.739Z,30.97
2019-04-01T18:20:47.885Z,30.57
2019-04-01T18:23:16.750Z,31.02
2019-04-01T18:25:45.664Z,31.56
2019-04-01T18:28:14.295Z,31.50
2019-04-01T18:30:42.943Z,31.60
2019-04-01T18:33:11.639Z,32.06
2019-04-01T18:35:40.263Z,31.84
2019-04-01T18:38:08.912Z,32.94
2019-04-01T18:40:37.536Z,32.94
2019-04-01T18:43:06.130Z,32.76
2019-04-01T18:45:34.750Z,33.93
2019-04-01T18:48:03.501Z,33.93
2019-04-01T18:50:32.478Z,34.09
2019-04-01T18:53:01.626Z,34.39
2019-04-01T18:55:31.268Z,34.65
2019-04-01T18:58:00.131Z,34.16
2019-04-01T19:00:28.756Z,35.63
2019-04-01T19:02:57.341Z,35.29
2019-04-01T19:05:26.292Z,34.86
2019-04-01T19:07:55.395Z,35.05
2019-04-01T19:10:24.022Z,34.90
2019-04-01T19:13:05.267Z,34.97
2019-04-01T19:15:23.497Z,34.93
2019-04-01T19:17:53.211Z,35.56
2019-04-01T19:20:21.888Z,36.25
2019-04-01T19:22:50.495Z,36.99
2019-04-01T19:25:19.205Z,36.96
2019-04-01T19:27:48.077Z,36.89
2019-04-01T19:30:17.898Z,36.87
2019-04-01T19:32:46.824Z,37.63
2019-04-01T19:35:15.608Z,37.54
2019-04-01T19:37:44.446Z,38.29
2019-04-01T19:40:14.696Z,37.80
2019-04-01T19:42:43.386Z,37.74
2019-04-01T19:45:12.971Z,36.80
2019-04-01T19:47:41.571Z,36.97
2019-04-01T19:50:10.743Z,36.27
2019-04-01T19:52:39.344Z,36.79
2019-04-01T19:55:08.534Z,38.08
2019-04-01T19:57:37.157Z,37.98
2019-04-01T20:00:05.918Z,38.79
2019-04-01T20:02:34.532Z,38.93
2019-04-01T20:05:03.454Z,37.83
2019-04-01T20:07:32.330Z,37.79
2019-04-01T20:10:01.063Z,38.24
2019-04-01T20:12:32.908Z,37.08
2019-04-01T20:15:01.511Z,38.03
2019-04-01T20:17:30.221Z,38.12
2019-04-01T20:19:58.833Z,39.14
2019-04-01T20:22:27.549Z,38.13
2019-04-01T20:24:56.394Z,37.81
2019-04-01T20:27:24.993Z,37.98
2019-04-01T20:29:53.912Z,37.89
2019-04-01T20:32:22.539Z,38.56
2019-04-01T20:34:57.239Z,37.58
2019-04-01T20:37:22.024Z,37.90
2019-04-01T20:42:24.936Z,38.24
2019-04-01T20:44:53.834Z,38.72
2019-04-01T20:47:22.503Z,37.74
2019-04-01T20:49:51.105Z,38.17
2019-04-01T20:52:19.970Z,38.40
2019-04-01T20:54:49.090Z,38.41
2019-04-01T20:57:17.743Z,37.64
2019-04-01T20:59:46.624Z,37.43
2019-04-01T21:02:15.503Z,37.68
2019-04-01T21:04:44.443Z,37.71
2019-04-01T21:07:14.128Z,38.13
2019-04-01T21:09:43.073Z,39.30
2019-04-01T21:12:11.673Z,38.86
2019-04-01T21:14:40.310Z,39.57
2019-04-01T21:17:08.910Z,39.92
2019-04-01T21:19:37.588Z,39.21
2019-04-01T21:22:07.202Z,38.67
2019-04-01T21:24:36.934Z,39.25
2019-04-01T21:27:05.545Z,39.36
2019-04-01T21:29:34.143Z,39.17
2019-04-01T21:32:02.759Z,38.75
2019-04-01T21:34:31.639Z,39.21
2019-04-01T21:37:03.245Z,39.57
2019-04-01T21:39:31.098Z,39.00
2019-04-01T21:41:59.754Z,39.17
2019-04-01T21:44:28.348Z,40.11
2019-04-01T21:46:56.959Z,39.29
2019-04-01T21:49:25.995Z,39.56
2019-04-01T21:51:54.698Z,40.20
2019-04-01T21:54:23.358Z,40.18
2019-04-01T21:56:52.436Z,39.14
2019-04-01T21:59:21.280Z,39.24
2019-04-01T22:01:49.947Z,39.06
2019-04-01T22:04:18.549Z,39.97
2019-04-01T22:06:47.404Z,39.55
2019-04-01T22:09:16.316Z,40.33
2019-04-01T22:11:44.953Z,40.45
2019-04-01T22:14:13.568Z,40.77
2019-04-01T22:16:42.181Z,41.19
2019-04-01T22:19:12.085Z,40.75
2019-04-01T22:21:40.813Z,40.59
2019-04-01T22:24:09.646Z,40.88
2019-04-01T22:26:38.791Z,41.79
2019-04-01T22:29:07.381Z,41.31
2019-04-01T22:31:36.324Z,42.25
2019-04-01T22:34:05.199Z,41.04
2019-04-01T22:36:34.023Z,41.07
2019-04-01T22:39:04.262Z,41.45
2019-04-01T22:41:33.355Z,41.32
2019-04-01T22:44:01.983Z,41.56
2019-04-01T22:46:31.121Z,42.16
2019-04-01T22:48:59.817Z,41.76
2019-04-01T22:51:28.450Z,41.69
2019-04-01T22:53:57.083Z,42.40
2019-04-01T22:56:27.036Z,41.54
2019-04-01T22:58:56.392Z,41.63
2019-04-01T23:01:25.247Z,41.57
2019-04-01T23:03:55.487Z,41.35
2019-04-01T23:06:26.718Z,42.18
2019-04-01T23:08:54.939Z,41.75
2019-04-01T23:11:24.206Z,42.41
2019-04-01T23:13:53.689Z,41.24
2019-04-01T23:16:22.296Z,41.83
2019-04-01T23:18:50.930Z,40.82
2019-04-01T23:21:19.530Z,41.63
2019-04-01T23:23:48.428Z,41.36
2019-04-01T23:26:17.070Z,42.15
2019-04-01T23:28:45.696Z,41.86
2019-04-01T23:31:14.571Z,41.41
2019-04-01T23:33:44.960Z,41.01
2019-04-01T23:36:13.710Z,42.61
2019-04-01T23:38:42.322Z,42.82
2019-04-01T23:41:10.931Z,41.97
2019-04-01T23:43:39.878Z,41.30
2019-04-01T23:46:08.734Z,41.80
2019-04-01T23:48:37.583Z,42.65
2019-04-01T23:51:07.186Z,45.77
2019-04-01T23:53:36.059Z,46.54
2019-04-01T23:56:04.754Z,45.41
2019-04-01T23:58:33.586Z,43.85
